Time;durP1;ratioP1;P1;durP2;ratioP2;P2;SDS_P1;SDS_P2;PMS_P1;PMS_P2;Temp;Humidity;BMP_temperature;BMP_pressure;BME280_temperature;BME280_humidity;BME280_pressure;Samples;Min_cycle;Max_cycle;Signal;HPM_P1;HPM_P2
2024/04/10 00:01:06;;;;;;;1.20;0.60;;;17.70;90.50;;;;;;5452730;26;20010;-44
2024/04/10 00:03:34;;;;;;;1.58;0.70;;;17.70;90.50;;;;;;5452825;26;20040;-40
2024/04/10 00:06:03;;;;;;;3.75;1.00;;;17.60;90.40;;;;;;5452615;26;19999;-40
2024/04/10 00:08:30;;;;;;;3.05;0.90;;;17.70;90.50;;;;;;5452661;26;20340;-42
2024/04/10 00:10:56;;;;;;;0.90;0.50;;;17.70;90.50;;;;;;5452573;26;20460;-40
2024/04/10 00:13:22;;;;;;;2.60;0.75;;;17.70;90.50;;;;;;5452915;26;20011;-40
2024/04/10 00:16:04;;;;;;;2.28;0.90;;;17.70;90.50;;;;;;5453203;26;20460;-43
2024/04/10 00:18:31;;;;;;;2.58;0.82;;;17.60;90.40;;;;;;5452871;26;19994;-43
2024/04/10 00:20:57;;;;;;;1.52;0.68;;;17.60;90.40;;;;;;5452547;26;19999;-43
2024/04/10 00:23:23;;;;;;;1.55;0.80;;;17.60;90.40;;;;;;5452663;26;20060;-41
2024/04/10 00:25:56;;;;;;;2.05;0.50;;;17.60;90.50;;;;;;5452605;26;20030;-45
2024/04/10 00:28:22;;;;;;;1.75;0.68;;;17.60;90.50;;;;;;5452493;26;20005;-41
2024/04/10 00:30:48;;;;;;;1.27;0.50;;;17.60;90.50;;;;;;5452352;26;20071;-43
2024/04/10 00:33:13;;;;;;;1.73;0.82;;;17.60;90.50;;;;;;5452389;26;20010;-44
2024/04/10 00:35:39;;;;;;;2.30;0.70;;;17.60;90.50;;;;;;5452606;26;20009;-44
2024/04/10 00:38:06;;;;;;;1.55;0.75;;;17.60;90.50;;;;;;5452462;26;19999;-44
2024/04/10 00:40:32;;;;;;;1.58;0.68;;;17.60;90.60;;;;;;5452253;26;19995;-47
2024/04/10 00:43:02;;;;;;;2.67;0.88;;;17.60;90.50;;;;;;5452382;26;20003;-43
2024/04/10 00:45:29;;;;;;;1.60;0.80;;;17.60;90.60;;;;;;5452206;26;20008;-43
2024/04/10 00:47:54;;;;;;;1.40;0.60;;;17.60;90.50;;;;;;5452225;26;19991;-40
2024/04/10 00:50:20;;;;;;;2.55;0.88;;;17.60;90.60;;;;;;5452078;26;20351;-42
2024/04/10 00:52:47;;;;;;;2.55;0.82;;;17.60;90.50;;;;;;5452107;26;19999;-42
2024/04/10 00:55:15;;;;;;;2.05;0.70;;;17.60;90.50;;;;;;5452705;26;20447;-43
2024/04/10 00:57:42;;;;;;;1.65;0.65;;;17.60;90.50;;;;;;5452234;26;19995;-43
2024/04/10 01:00:09;;;;;;;2.00;0.80;;;17.60;90.50;;;;;;5452029;26;19999;-43
2024/04/10 01:02:34;;;;;;;2.22;0.70;;;17.60;90.50;;;;;;5452192;26;20005;-44
2024/04/10 01:05:00;;;;;;;1.55;0.52;;;17.60;90.50;;;;;;5451963;26;19994;-41
2024/04/10 01:07:26;;;;;;;1.75;0.70;;;17.50;90.50;;;;;;5451359;26;19998;-46
2024/04/10 01:09:51;;;;;;;2.72;0.70;;;17.50;90.50;;;;;;5450959;26;20009;-43
2024/04/10 01:12:17;;;;;;;1.48;0.60;;;17.50;90.50;;;;;;5451745;26;20006;-40
2024/04/10 01:14:43;;;;;;;3.42;0.80;;;17.50;90.40;;;;;;5451764;26;20006;-40
2024/04/10 01:17:08;;;;;;;1.90;0.82;;;17.50;90.40;;;;;;5451756;26;19995;-41
2024/04/10 01:19:34;;;;;;;1.27;0.57;;;17.50;90.40;;;;;;5451753;26;19995;-43
2024/04/10 01:21:59;;;;;;;2.65;0.77;;;17.50;90.40;;;;;;5451512;26;20010;-41
2024/04/10 01:24:25;;;;;;;2.28;0.70;;;17.50;90.40;;;;;;5451689;26;20560;-43
2024/04/10 01:26:51;;;;;;;2.22;0.85;;;17.50;90.40;;;;;;5451629;26;20071;-43
2024/04/10 01:31:30;;;;;;;2.97;0.93;;;17.50;90.40;;;;;;5517671;25;20330;-42
2024/04/10 01:33:56;;;;;;;1.73;0.70;;;17.50;90.30;;;;;;5506931;26;19990;-41
2024/04/10 01:36:22;;;;;;;2.60;0.63;;;17.50;90.30;;;;;;5507029;25;20002;-43
2024/04/10 01:38:50;;;;;;;1.83;0.73;;;17.50;90.30;;;;;;5507279;26;20035;-40
2024/04/10 01:41:15;;;;;;;2.45;0.70;;;17.50;90.30;;;;;;5506761;25;20000;-43
2024/04/10 01:43:41;;;;;;;1.35;0.57;;;17.50;90.30;;;;;;5506797;25;20398;-43
2024/04/10 01:46:07;;;;;;;1.70;0.63;;;17.50;90.30;;;;;;5506740;25;20054;-43
2024/04/10 01:48:32;;;;;;;2.10;0.63;;;17.50;90.30;;;;;;5506699;26;19993;-41
2024/04/10 01:50:59;;;;;;;1.48;0.70;;;17.50;90.30;;;;;;5506451;25;20373;-44
2024/04/10 01:53:24;;;;;;;2.15;0.65;;;17.50;90.60;;;;;;5506732;26;19994;-41
2024/04/10 01:55:51;;;;;;;3.10;0.90;;;17.50;90.30;;;;;;5535806;25;19997;-43
2024/04/10 01:58:17;;;;;;;2.53;0.90;;;17.40;90.30;;;;;;5506504;25;19994;-44
2024/04/10 02:00:43;;;;;;;1.77;0.57;;;17.50;90.30;;;;;;5506172;26;19994;-42
2024/04/10 02:03:08;;;;;;;1.80;0.77;;;17.50;90.30;;;;;;5506612;26;20375;-40
2024/04/10 02:05:34;;;;;;;2.00;0.70;;;17.40;90.30;;;;;;5506897;26;20008;-41
2024/04/10 02:08:00;;;;;;;2.08;0.80;;;17.40;90.30;;;;;;5506598;26;19994;-41
2024/04/10 02:10:25;;;;;;;2.78;0.70;;;17.40;90.30;;;;;;5506196;25;20005;-42
2024/04/10 02:12:51;;;;;;;1.63;0.60;;;17.40;90.20;;;;;;5506462;26;20074;-42
2024/04/10 02:15:17;;;;;;;1.25;0.65;;;17.40;90.20;;;;;;5506374;26;19989;-41
2024/04/10 02:17:42;;;;;;;2.35;0.80;;;17.40;90.30;;;;;;5506443;25;19990;-42
2024/04/10 02:20:09;;;;;;;2.67;0.90;;;17.40;90.30;;;;;;5506130;26;19997;-41
2024/04/10 02:22:35;;;;;;;3.25;1.05;;;17.40;90.20;;;;;;5506243;26;19993;-42
2024/04/10 02:25:01;;;;;;;1.77;0.80;;;17.40;90.30;;;;;;5506238;26;19986;-43
2024/04/10 02:27:26;;;;;;;1.45;0.70;;;17.40;90.30;;;;;;5506089;26;20086;-42
2024/04/10 02:29:52;;;;;;;2.05;0.82;;;17.40;90.30;;;;;;5505838;25;20457;-41
2024/04/10 02:32:17;;;;;;;2.25;0.70;;;17.40;90.30;;;;;;5506067;25;20001;-40
2024/04/10 02:34:44;;;;;;;2.45;0.77;;;17.40;90.20;;;;;;5506038;25;20034;-40
2024/04/10 02:37:10;;;;;;;1.98;0.55;;;17.40;90.20;;;;;;5506032;26;20443;-43
2024/04/10 02:39:36;;;;;;;3.33;1.00;;;17.40;90.20;;;;;;5505946;26;20495;-40
2024/04/10 02:42:01;;;;;;;1.95;0.80;;;17.40;90.10;;;;;;5494227;25;19994;-41
2024/04/10 02:44:27;;;;;;;1.88;0.82;;;17.40;90.10;;;;;;5490108;26;19994;-42
2024/04/10 02:46:55;;;;;;;2.35;0.63;;;17.30;90.10;;;;;;5490243;26;19990;-41
2024/04/10 02:49:20;;;;;;;1.35;0.60;;;17.30;90.10;;;;;;5489948;26;19994;-41
2024/04/10 02:51:46;;;;;;;2.92;0.93;;;17.30;90.10;;;;;;5489922;26;19990;-40
2024/04/10 02:54:12;;;;;;;2.45;0.80;;;17.30;90.10;;;;;;5490214;26;20046;-43
2024/04/10 02:56:37;;;;;;;2.00;0.77;;;17.30;90.10;;;;;;5490329;26;20050;-40
2024/04/10 02:59:03;;;;;;;1.88;0.60;;;17.30;90.10;;;;;;5489805;26;20001;-43
2024/04/10 03:01:29;;;;;;;2.42;0.65;;;17.30;90.00;;;;;;5489841;26;20001;-42
2024/04/10 03:03:54;;;;;;;1.67;0.65;;;17.30;90.00;;;;;;5490028;26;19992;-40
2024/04/10 03:06:20;;;;;;;2.75;0.90;;;17.30;90.00;;;;;;5489843;26;19990;-44
2024/04/10 03:08:46;;;;;;;2.60;0.70;;;17.30;90.10;;;;;;5490078;26;20413;-40
2024/04/10 03:11:14;;;;;;;2.70;0.73;;;17.20;90.00;;;;;;5489581;26;20451;-41
2024/04/10 03:13:39;;;;;;;2.40;0.80;;;17.30;90.10;;;;;;5489766;26;20343;-41
2024/04/10 03:16:06;;;;;;;3.72;0.75;;;17.30;90.00;;;;;;5489897;26;20001;-43
2024/04/10 03:18:32;;;;;;;2.08;0.90;;;17.30;90.00;;;;;;5489799;26;19998;-44
2024/04/10 03:20:58;;;;;;;1.70;0.70;;;17.30;90.00;;;;;;5489705;26;20067;-41
2024/04/10 03:23:24;;;;;;;2.40;0.70;;;17.30;90.00;;;;;;5489888;26;20004;-42
2024/04/10 03:26:09;;;;;;;0.85;0.55;;;17.30;89.90;;;;;;5489585;26;20001;-41
2024/04/10 03:28:35;;;;;;;1.55;0.70;;;17.30;89.90;;;;;;5489592;26;19998;-40
2024/04/10 03:31:04;;;;;;;1.58;0.70;;;17.20;89.80;;;;;;5489703;26;20327;-43
2024/04/10 03:33:30;;;;;;;1.48;0.70;;;17.20;89.70;;;;;;5489746;26;20038;-40
2024/04/10 03:35:56;;;;;;;1.95;0.80;;;17.30;89.80;;;;;;5489681;26;20393;-41
2024/04/10 03:38:21;;;;;;;3.75;0.70;;;17.30;89.60;;;;;;5489680;26;20005;-42
2024/04/10 03:40:47;;;;;;;2.33;0.77;;;17.20;89.60;;;;;;5489250;26;19998;-39
2024/04/10 03:43:13;;;;;;;2.20;0.68;;;17.20;89.60;;;;;;5489385;26;19995;-40
2024/04/10 03:45:38;;;;;;;1.77;0.82;;;17.20;89.60;;;;;;5489398;26;20384;-42
2024/04/10 03:48:04;;;;;;;1.73;0.55;;;17.30;89.50;;;;;;5518176;26;20066;-43
2024/04/10 03:50:30;;;;;;;6.18;2.17;;;17.20;89.40;;;;;;5488942;26;20010;-44
2024/04/10 03:52:56;;;;;;;2.38;1.30;;;17.20;89.40;;;;;;5489337;26;20017;-43
2024/04/10 03:55:21;;;;;;;3.03;1.17;;;17.20;89.30;;;;;;5489103;26;20467;-43
2024/04/10 03:57:47;;;;;;;2.20;1.10;;;17.20;89.30;;;;;;5489064;26;19994;-41
2024/04/10 04:00:13;;;;;;;3.83;1.23;;;17.20;89.20;;;;;;5489025;26;20020;-41
2024/04/10 04:02:38;;;;;;;2.63;1.00;;;17.20;89.20;;;;;;5489088;26;19998;-41
2024/04/10 04:05:05;;;;;;;2.50;1.20;;;17.20;89.30;;;;;;5489074;26;20004;-45
2024/04/10 04:07:31;;;;;;;2.25;0.85;;;17.20;89.10;;;;;;5488834;26;20451;-44
2024/04/10 04:09:56;;;;;;;2.13;0.98;;;17.20;89.10;;;;;;5517621;26;20009;-41
2024/04/10 04:12:22;;;;;;;2.38;0.90;;;17.20;89.10;;;;;;5489039;26;20005;-43
2024/04/10 04:14:48;;;;;;;1.70;0.95;;;17.20;89.10;;;;;;5489023;26;20047;-44
2024/04/10 04:17:13;;;;;;;2.90;0.90;;;17.20;89.10;;;;;;5488914;26;20439;-43
2024/04/10 04:19:39;;;;;;;2.75;0.93;;;17.10;89.10;;;;;;5488745;26;20005;-41
2024/04/10 04:22:05;;;;;;;2.03;0.77;;;17.10;89.00;;;;;;5488627;26;19998;-43
2024/04/10 04:24:31;;;;;;;2.10;1.00;;;17.10;89.10;;;;;;5488936;26;20458;-42
2024/04/10 04:26:56;;;;;;;2.78;0.93;;;17.10;89.00;;;;;;5488822;26;20017;-41
2024/04/10 04:29:22;;;;;;;1.60;0.73;;;17.10;89.10;;;;;;5488564;26;19990;-41
2024/04/10 04:31:51;;;;;;;2.20;0.98;;;17.10;89.00;;;;;;5488585;26;20042;-41
2024/04/10 04:34:17;;;;;;;1.63;0.90;;;17.20;89.00;;;;;;5488633;26;20413;-43
2024/04/10 04:36:43;;;;;;;1.77;0.75;;;17.10;89.00;;;;;;5488513;26;20006;-43
2024/04/10 04:39:09;;;;;;;2.05;0.63;;;17.10;88.90;;;;;;5488550;26;19998;-40
2024/04/10 04:41:35;;;;;;;2.50;1.00;;;17.10;89.00;;;;;;5488360;26;19994;-39
2024/04/10 04:44:01;;;;;;;3.90;0.98;;;17.10;83.30;;;;;;5488550;26;19995;-43
2024/04/10 04:46:26;;;;;;;4.10;1.15;;;16.50;82.80;;;;;;5488661;26;19998;-42
2024/04/10 04:48:52;;;;;;;4.05;1.15;;;16.30;84.70;;;;;;5488392;26;20443;-41
2024/04/10 04:51:18;;;;;;;4.07;1.00;;;16.20;85.40;;;;;;5488206;26;20459;-42
2024/04/10 04:53:43;;;;;;;4.13;1.45;;;16.30;86.00;;;;;;5488330;26;20002;-41
2024/04/10 04:56:09;;;;;;;4.30;1.08;;;16.30;86.10;;;;;;5488275;26;20009;-43
2024/04/10 04:58:35;;;;;;;3.70;0.98;;;16.40;86.30;;;;;;5488279;26;20343;-40
2024/04/10 05:01:00;;;;;;;3.47;1.10;;;16.50;86.40;;;;;;5488052;26;20474;-42
2024/04/10 05:06:10;;;;;;;2.97;0.90;;;16.60;87.00;;;;;;5488025;26;20355;-44
2024/04/10 05:08:36;;;;;;;3.10;1.00;;;16.70;86.40;;;;;;5488129;26;19994;-43
2024/04/10 05:11:08;;;;;;;2.63;0.88;;;16.70;86.40;;;;;;5487880;26;20013;-42
2024/04/10 05:13:35;;;;;;;2.70;1.20;;;16.70;86.50;;;;;;5488335;26;20066;-42
2024/04/10 05:16:01;;;;;;;2.72;1.00;;;16.70;86.60;;;;;;5488154;26;20448;-42
2024/04/10 05:18:26;;;;;;;2.88;1.10;;;16.70;86.60;;;;;;5487704;26;20022;-42
2024/04/10 05:20:52;;;;;;;4.30;1.00;;;16.70;86.80;;;;;;5487765;26;20403;-40
2024/04/10 05:23:18;;;;;;;3.63;1.10;;;16.70;86.80;;;;;;5487983;26;20005;-40
2024/04/10 05:25:45;;;;;;;1.73;0.80;;;16.70;87.00;;;;;;5487917;26;20320;-42
2024/04/10 05:28:11;;;;;;;3.55;1.05;;;16.70;87.20;;;;;;5487733;26;19998;-40
2024/04/10 05:30:37;;;;;;;2.63;1.02;;;16.70;87.20;;;;;;5487848;26;20009;-42
2024/04/10 05:33:03;;;;;;;3.83;1.10;;;16.70;87.20;;;;;;5487596;26;20389;-43
2024/04/10 05:35:28;;;;;;;3.75;1.15;;;16.70;87.40;;;;;;5487702;26;20009;-41
2024/04/10 05:37:55;;;;;;;3.58;0.98;;;16.70;87.40;;;;;;5487461;26;20066;-40
2024/04/10 05:40:21;;;;;;;3.15;1.02;;;16.70;87.40;;;;;;5487457;26;19994;-41
2024/04/10 05:42:46;;;;;;;5.00;1.10;;;16.70;87.50;;;;;;5487623;26;20397;-40
2024/04/10 05:45:13;;;;;;;3.83;1.05;;;16.70;87.50;;;;;;5487772;26;20375;-43
2024/04/10 05:47:41;;;;;;;3.17;1.00;;;16.80;88.40;;;;;;5487193;26;20333;-42
2024/04/10 05:50:11;;;;;;;2.72;1.00;;;16.80;87.60;;;;;;5487157;26;19994;-42
2024/04/10 05:52:39;;;;;;;2.15;1.00;;;16.80;87.60;;;;;;5487366;26;20459;-44
2024/04/10 05:55:05;;;;;;;2.70;1.02;;;16.80;87.70;;;;;;5487416;26;19994;-41
2024/04/10 05:57:31;;;;;;;3.13;1.17;;;16.80;87.60;;;;;;5487158;26;20528;-43
2024/04/10 05:59:57;;;;;;;2.17;1.00;;;16.80;87.60;;;;;;5487116;26;20488;-42
2024/04/10 06:02:24;;;;;;;2.17;1.10;;;16.80;87.90;;;;;;5486917;26;20786;-42
2024/04/10 06:04:56;;;;;;;2.88;1.13;;;16.80;87.70;;;;;;5487290;26;20009;-41
2024/04/10 06:07:21;;;;;;;2.67;1.00;;;16.90;87.80;;;;;;5487335;26;20006;-43
2024/04/10 06:09:54;;;;;;;2.92;1.15;;;16.80;87.80;;;;;;5487028;26;20031;-43
2024/04/10 06:12:21;;;;;;;1.98;0.93;;;16.90;87.90;;;;;;5487019;26;20006;-42
2024/04/10 06:14:51;;;;;;;4.50;1.13;;;16.90;87.90;;;;;;5486868;26;20005;-43
2024/04/10 06:17:17;;;;;;;3.20;1.27;;;16.90;88.00;;;;;;5488874;26;19994;-40
2024/04/10 06:19:42;;;;;;;4.53;1.33;;;16.90;88.00;;;;;;5490619;26;20404;-42
2024/04/10 06:22:08;;;;;;;1.80;0.90;;;16.90;88.00;;;;;;5490428;26;20004;-43
2024/04/10 06:24:34;;;;;;;2.58;0.90;;;16.90;88.00;;;;;;5490552;26;20002;-44
2024/04/10 06:27:00;;;;;;;2.13;0.82;;;16.90;88.00;;;;;;5490503;26;20458;-41
2024/04/10 06:29:26;;;;;;;3.05;1.08;;;16.90;88.00;;;;;;5490047;26;20006;-43
2024/04/10 06:31:52;;;;;;;2.10;0.90;;;16.90;88.10;;;;;;5490236;26;20002;-42
2024/04/10 06:34:17;;;;;;;5.15;1.05;;;16.90;88.20;;;;;;5490434;26;19998;-42
2024/04/10 06:36:43;;;;;;;2.50;1.00;;;16.90;88.20;;;;;;5490380;26;19994;-41
2024/04/10 06:39:10;;;;;;;2.20;0.90;;;16.80;88.10;;;;;;5490265;26;20009;-44
2024/04/10 06:41:36;;;;;;;2.78;1.05;;;16.90;88.20;;;;;;5490169;26;20269;-43
2024/04/10 06:44:01;;;;;;;3.17;1.30;;;16.90;88.30;;;;;;5490671;26;20001;-40
2024/04/10 06:46:27;;;;;;;2.25;0.98;;;16.90;88.30;;;;;;5490339;26;20004;-42
2024/04/10 06:48:53;;;;;;;2.67;0.88;;;16.90;89.10;;;;;;5490097;26;19998;-40
2024/04/10 06:51:19;;;;;;;3.90;1.15;;;16.90;88.30;;;;;;5518821;26;20412;-42
2024/04/10 06:53:45;;;;;;;9.77;2.30;;;16.90;88.40;;;;;;5490209;26;20372;-47
2024/04/10 06:56:11;;;;;;;8.10;2.20;;;16.70;83.40;;;;;;5490279;26;19994;-42
2024/04/10 06:58:36;;;;;;;6.47;1.77;;;16.30;85.30;;;;;;5489854;26;19998;-45
2024/04/10 07:01:07;;;;;;;6.07;2.03;;;16.10;86.40;;;;;;5489925;26;20009;-44
2024/04/10 07:03:34;;;;;;;8.45;1.95;;;16.10;86.90;;;;;;5490162;26;20411;-44
2024/04/10 07:06:13;;;;;;;7.63;1.70;;;16.20;87.00;;;;;;5490103;26;19994;-44
2024/04/10 07:08:42;;;;;;;6.07;1.92;;;16.30;87.20;;;;;;5489900;26;19994;-43
2024/04/10 07:11:09;;;;;;;6.13;1.60;;;16.40;87.50;;;;;;5489765;26;20022;-46
2024/04/10 07:13:54;;;;;;;5.85;1.50;;;16.50;87.30;;;;;;5489940;26;19997;-44
2024/04/10 07:16:26;;;;;;;5.82;1.85;;;16.50;87.40;;;;;;5489881;26;19998;-44
2024/04/10 07:18:52;;;;;;;5.05;1.60;;;16.60;87.30;;;;;;5489790;26;19998;-43
2024/04/10 07:21:18;;;;;;;5.97;1.60;;;16.60;87.40;;;;;;5489622;26;20069;-44
2024/04/10 07:23:47;;;;;;;4.00;1.50;;;16.70;87.50;;;;;;5489668;26;19995;-42
2024/04/10 07:26:15;;;;;;;3.03;1.48;;;16.70;87.50;;;;;;5489656;26;20331;-45
2024/04/10 07:28:45;;;;;;;3.28;1.48;;;16.70;87.70;;;;;;5489041;26;20066;-42
2024/04/10 07:31:11;;;;;;;3.35;1.30;;;16.70;87.60;;;;;;5489341;26;20001;-43
2024/04/10 07:33:40;;;;;;;6.75;1.50;;;16.80;87.90;;;;;;5489590;26;20034;-42
2024/04/10 07:36:20;;;;;;;4.78;1.60;;;16.80;87.90;;;;;;5489393;26;20012;-43
2024/04/10 07:38:47;;;;;;;3.67;1.48;;;16.70;87.80;;;;;;5489868;26;19994;-45
2024/04/10 07:41:13;;;;;;;3.00;1.40;;;16.80;87.90;;;;;;5489359;26;20478;-46
2024/04/10 07:43:39;;;;;;;5.63;1.77;;;16.80;88.00;;;;;;5489429;26;20005;-42
2024/04/10 07:46:13;;;;;;;4.45;1.35;;;16.80;88.00;;;;;;5489353;26;20004;-43
2024/04/10 07:48:40;;;;;;;4.82;1.30;;;16.80;88.00;;;;;;5489152;26;19998;-44
2024/04/10 07:51:07;;;;;;;6.18;1.40;;;16.90;88.00;;;;;;5489010;26;20004;-43
2024/04/10 07:53:35;;;;;;;3.80;1.25;;;16.90;88.70;;;;;;5489330;26;20419;-43
2024/04/10 07:56:01;;;;;;;3.70;1.35;;;16.90;88.00;;;;;;5489223;26;20008;-42
2024/04/10 07:58:28;;;;;;;7.25;1.48;;;16.90;87.90;;;;;;5489080;26;20451;-44
2024/04/10 08:00:56;;;;;;;4.18;1.48;;;17.00;87.90;;;;;;5488991;26;20039;-42
2024/04/10 08:03:23;;;;;;;4.00;1.38;;;17.00;87.80;;;;;;5489168;26;20002;-44
2024/04/10 08:05:52;;;;;;;3.33;1.40;;;17.00;87.80;;;;;;5489219;26;20006;-43
2024/04/10 08:08:18;;;;;;;7.25;1.20;;;17.10;87.70;;;;;;5488911;26;20088;-44
2024/04/10 08:10:45;;;;;;;3.78;1.33;;;17.10;87.70;;;;;;5488738;26;19994;-44
2024/04/10 08:13:10;;;;;;;2.95;1.25;;;17.10;88.40;;;;;;5489157;26;20002;-44
2024/04/10 08:15:37;;;;;;;3.47;1.10;;;17.10;87.50;;;;;;5489331;26;20066;-42
2024/04/10 08:18:04;;;;;;;6.63;1.58;;;17.20;87.60;;;;;;5489239;26;20005;-44
2024/04/10 08:20:29;;;;;;;2.33;1.00;;;17.20;87.60;;;;;;5488785;26;20070;-44
2024/04/10 08:22:55;;;;;;;3.47;1.20;;;17.20;87.70;;;;;;5488898;26;20002;-47
2024/04/10 08:25:20;;;;;;;3.38;1.33;;;17.20;87.90;;;;;;5488730;26;20005;-46
2024/04/10 08:27:46;;;;;;;6.95;1.30;;;17.10;88.00;;;;;;5488556;26;19998;-42
2024/04/10 08:30:12;;;;;;;6.95;1.63;;;17.10;87.80;;;;;;5488458;26;20071;-42
2024/04/10 08:32:37;;;;;;;12.82;2.88;;;17.10;82.40;;;;;;5488774;26;20008;-43
2024/04/10 08:35:04;;;;;;;12.02;1.83;;;16.90;83.20;;;;;;5488015;26;20348;-44
2024/04/10 08:37:30;;;;;;;8.20;2.03;;;16.90;83.70;;;;;;5484937;26;21609;-46
2024/04/10 08:39:56;;;;;;;11.68;2.05;;;16.90;81.00;;;;;;5486972;26;20463;-45
2024/04/10 08:42:23;;;;;;;10.10;1.80;;;16.70;80.80;;;;;;5488532;26;20018;-45
2024/04/10 08:44:51;;;;;;;8.48;1.80;;;16.70;81.90;;;;;;5488549;26;20066;-42
2024/04/10 08:47:19;;;;;;;8.43;1.95;;;16.70;82.10;;;;;;5488490;26;20002;-44
2024/04/10 08:49:44;;;;;;;8.77;2.17;;;16.80;83.60;;;;;;5488387;26;20070;-45
2024/04/10 08:52:12;;;;;;;6.53;1.38;;;16.80;82.80;;;;;;5488257;26;20392;-45
2024/04/10 08:54:37;;;;;;;8.38;1.60;;;16.90;83.10;;;;;;5488321;26;20346;-45
2024/04/10 08:57:06;;;;;;;8.18;1.77;;;17.00;83.20;;;;;;5488303;26;19994;-44
2024/04/10 08:59:33;;;;;;;7.07;1.83;;;17.10;83.30;;;;;;5488109;26;20023;-43
2024/04/10 09:02:01;;;;;;;9.35;2.03;;;17.10;83.50;;;;;;5488101;26;19998;-44
2024/04/10 09:04:27;;;;;;;6.72;1.50;;;17.20;83.60;;;;;;5488363;26;19998;-43
2024/04/10 09:07:03;;;;;;;5.97;1.70;;;17.20;83.80;;;;;;5488234;26;20081;-43
2024/04/10 09:09:29;;;;;;;6.68;1.58;;;17.20;84.10;;;;;;5488057;26;20030;-44
2024/04/10 09:11:54;;;;;;;5.95;1.38;;;17.20;85.10;;;;;;5487664;26;19994;-43
2024/04/10 09:14:20;;;;;;;9.48;1.95;;;17.30;84.60;;;;;;5488028;26;20062;-43
2024/04/10 09:16:46;;;;;;;7.45;1.63;;;17.30;84.80;;;;;;5488260;26;20054;-42
2024/04/10 09:19:11;;;;;;;4.93;1.27;;;17.30;84.90;;;;;;5488026;26;20070;-44
2024/04/10 09:21:38;;;;;;;8.25;1.38;;;17.40;85.00;;;;;;5487777;26;20002;-42
2024/04/10 09:24:04;;;;;;;4.88;1.48;;;17.40;85.20;;;;;;5487909;26;19994;-44
2024/04/10 09:26:30;;;;;;;6.57;1.70;;;17.40;85.20;;;;;;5487792;26;20005;-44
2024/04/10 09:29:11;;;;;;;5.22;1.45;;;17.50;85.20;;;;;;5487782;26;19994;-47
2024/04/10 09:31:38;;;;;;;4.93;1.20;;;17.50;85.20;;;;;;5487555;26;20002;-45
2024/04/10 09:34:03;;;;;;;10.73;1.52;;;17.50;85.20;;;;;;5487772;26;20451;-45
2024/04/10 09:36:34;;;;;;;4.47;1.40;;;17.60;85.20;;;;;;5487600;26;19994;-46
2024/04/10 09:39:00;;;;;;;6.22;1.60;;;17.60;85.20;;;;;;5487493;26;20004;-44
2024/04/10 09:41:31;;;;;;;6.00;1.33;;;17.60;85.20;;;;;;5487411;26;19995;-44
2024/04/10 09:43:58;;;;;;;5.35;1.55;;;17.70;85.30;;;;;;5487624;26;19998;-43
2024/04/10 09:46:33;;;;;;;4.22;1.25;;;17.70;85.30;;;;;;5487536;26;19994;-45
2024/04/10 09:49:08;;;;;;;5.65;1.58;;;17.70;85.40;;;;;;5487918;26;19994;-44
2024/04/10 09:51:38;;;;;;;4.15;1.60;;;17.80;85.50;;;;;;5489460;26;19994;-42
2024/04/10 09:54:09;;;;;;;3.75;1.23;;;17.80;85.50;;;;;;5491083;26;20455;-46
2024/04/10 09:56:37;;;;;;;4.55;1.38;;;17.80;85.50;;;;;;5490881;26;20005;-44
2024/04/10 09:59:06;;;;;;;5.68;1.00;;;17.80;85.40;;;;;;5490848;26;20046;-42
2024/04/10 10:01:31;;;;;;;3.92;1.38;;;17.90;85.50;;;;;;5490786;26;20058;-44
2024/04/10 10:03:57;;;;;;;4.88;1.27;;;17.90;85.50;;;;;;5490765;26;20441;-45
2024/04/10 10:06:30;;;;;;;5.88;1.38;;;17.90;85.50;;;;;;5490969;26;20003;-43
2024/04/10 10:08:56;;;;;;;5.45;1.42;;;17.90;85.40;;;;;;5490743;26;20069;-45
2024/04/10 10:11:22;;;;;;;4.53;1.17;;;18.00;85.40;;;;;;5490431;26;20460;-44
2024/04/10 10:13:58;;;;;;;4.63;1.50;;;18.00;85.40;;;;;;5488932;26;20010;-43
2024/04/10 10:16:25;;;;;;;4.30;1.20;;;18.10;85.40;;;;;;5490639;26;20001;-43
2024/04/10 10:19:01;;;;;;;4.22;1.15;;;18.10;86.10;;;;;;5490608;26;19994;-42
2024/04/10 10:21:28;;;;;;;3.53;1.10;;;18.10;85.30;;;;;;5490471;26;20002;-43
2024/04/10 10:24:14;;;;;;;3.08;1.20;;;18.20;85.30;;;;;;5490673;26;19998;-45
2024/04/10 10:26:40;;;;;;;4.82;1.30;;;18.20;85.20;;;;;;5490409;26;20498;-44
2024/04/10 10:29:09;;;;;;;4.03;1.13;;;18.20;85.20;;;;;;5490218;26;20006;-46
2024/04/10 10:31:35;;;;;;;4.70;1.20;;;18.30;85.10;;;;;;5490321;26;19994;-43
2024/04/10 10:34:03;;;;;;;3.92;1.13;;;18.30;85.00;;;;;;5490491;26;20004;-46
2024/04/10 10:36:35;;;;;;;2.97;1.10;;;18.40;84.90;;;;;;5490380;26;20005;-43
2024/04/10 10:39:08;;;;;;;3.40;1.17;;;18.40;84.80;;;;;;5490319;26;19994;-42
2024/04/10 10:41:34;;;;;;;5.57;1.13;;;18.50;84.80;;;;;;5489829;26;20010;-46
2024/04/10 10:44:00;;;;;;;2.97;1.00;;;18.60;84.60;;;;;;5490210;26;20069;-43
2024/04/10 10:46:26;;;;;;;2.20;0.90;;;18.60;85.30;;;;;;5490108;26;20487;-43
2024/04/10 10:48:53;;;;;;;3.50;1.20;;;18.70;84.40;;;;;;5490193;26;19994;-43
2024/04/10 10:51:19;;;;;;;3.40;1.05;;;18.80;84.20;;;;;;5490226;26;20047;-47
2024/04/10 10:53:48;;;;;;;2.88;1.20;;;18.80;84.10;;;;;;5490152;26;20006;-46
2024/04/10 10:56:23;;;;;;;3.45;1.00;;;18.90;84.00;;;;;;5490029;26;19994;-43
2024/04/10 10:58:48;;;;;;;4.38;0.95;;;18.90;83.80;;;;;;5489764;26;19994;-45
2024/04/10 11:01:14;;;;;;;4.45;1.20;;;19.00;83.70;;;;;;5489995;26;20004;-43
2024/04/10 11:03:40;;;;;;;2.30;0.80;;;19.00;83.60;;;;;;5489466;26;20332;-44
2024/04/10 11:06:09;;;;;;;2.50;0.93;;;19.00;83.60;;;;;;5489967;26;20002;-43
2024/04/10 11:08:35;;;;;;;4.90;1.25;;;19.00;83.70;;;;;;5489818;26;19994;-42
2024/04/10 11:11:01;;;;;;;4.75;1.20;;;19.00;83.70;;;;;;5489880;26;20005;-43
2024/04/10 11:13:26;;;;;;;5.00;1.20;;;19.00;83.80;;;;;;5489701;26;20444;-45
2024/04/10 11:15:57;;;;;;;3.70;0.80;;;19.00;83.90;;;;;;5489754;26;19998;-45
2024/04/10 11:18:22;;;;;;;2.80;0.90;;;19.00;84.00;;;;;;5489693;26;19998;-45
2024/04/10 11:20:49;;;;;;;3.40;0.85;;;18.90;84.00;;;;;;5490081;26;20009;-46
2024/04/10 11:23:16;;;;;;;2.35;0.82;;;18.90;84.00;;;;;;5489804;26;20008;-43
2024/04/10 11:25:42;;;;;;;3.55;1.00;;;18.90;84.10;;;;;;5489863;26;19994;-44
2024/04/10 11:28:09;;;;;;;3.47;0.93;;;18.90;84.10;;;;;;5489440;26;19994;-45
2024/04/10 11:30:35;;;;;;;2.65;1.05;;;18.90;84.30;;;;;;5489344;26;20006;-47
2024/04/10 11:33:02;;;;;;;2.88;0.90;;;18.80;84.20;;;;;;5489620;26;20070;-43
2024/04/10 11:35:28;;;;;;;4.10;0.90;;;18.80;84.40;;;;;;5489701;26;19994;-43
2024/04/10 11:37:55;;;;;;;2.17;0.90;;;18.80;84.40;;;;;;5489463;26;19998;-43
2024/04/10 11:40:22;;;;;;;4.15;1.00;;;18.80;84.40;;;;;;5488814;26;20005;-46
2024/04/10 11:42:48;;;;;;;4.38;0.90;;;18.80;84.40;;;;;;5489451;26;20531;-43
2024/04/10 11:45:15;;;;;;;4.00;0.82;;;18.90;84.30;;;;;;5489461;26;19994;-43
2024/04/10 11:47:42;;;;;;;3.65;0.90;;;18.90;84.30;;;;;;5489279;26;19994;-46
2024/04/10 11:50:08;;;;;;;3.33;0.80;;;19.00;84.20;;;;;;5489325;26;19997;-42
2024/04/10 11:52:35;;;;;;;3.70;0.77;;;19.00;84.10;;;;;;5489328;26;19991;-43
2024/04/10 11:55:04;;;;;;;2.20;0.65;;;19.10;84.00;;;;;;5489040;26;19994;-43
2024/04/10 11:57:31;;;;;;;2.83;0.88;;;19.00;84.00;;;;;;5489196;26;20005;-47
2024/04/10 11:59:56;;;;;;;3.42;0.90;;;19.10;84.10;;;;;;5489038;26;20371;-42
2024/04/10 12:02:25;;;;;;;3.13;0.80;;;19.10;84.10;;;;;;5489150;26;20006;-45
2024/04/10 12:04:52;;;;;;;2.80;0.75;;;19.10;84.10;;;;;;5489249;26;20000;-45
2024/04/10 12:07:18;;;;;;;1.95;0.90;;;19.10;84.20;;;;;;5488850;26;20009;-44
2024/04/10 12:09:47;;;;;;;3.42;0.65;;;19.00;84.20;;;;;;5488809;26;19998;-46
2024/04/10 12:12:13;;;;;;;2.42;1.00;;;19.10;84.30;;;;;;5488921;26;19998;-42
2024/04/10 12:14:42;;;;;;;2.53;0.70;;;19.00;84.20;;;;;;5487465;26;20403;-46
2024/04/10 12:17:09;;;;;;;1.77;0.73;;;19.10;84.30;;;;;;5488913;26;20001;-46
2024/04/10 12:19:34;;;;;;;6.97;1.40;;;19.10;84.20;;;;;;5488768;26;20088;-48
2024/04/10 12:22:00;;;;;;;7.13;1.63;;;19.10;80.20;;;;;;5488459;26;19994;-47
2024/04/10 12:24:26;;;;;;;7.10;1.42;;;19.20;73.90;;;;;;5488839;26;20005;-43
2024/04/10 12:26:51;;;;;;;6.43;1.48;;;19.10;74.00;;;;;;5488220;26;19998;-46
2024/04/10 12:29:18;;;;;;;10.23;1.30;;;19.10;74.90;;;;;;5487773;26;20010;-44
2024/04/10 12:31:45;;;;;;;6.72;1.25;;;19.20;75.80;;;;;;5487268;26;20121;-43
2024/04/10 12:34:12;;;;;;;4.95;1.30;;;19.20;76.40;;;;;;5485977;26;19998;-43
2024/04/10 12:39:22;;;;;;;6.88;1.20;;;19.20;77.40;;;;;;5488620;26;20009;-42
2024/04/10 12:41:51;;;;;;;5.88;1.13;;;19.30;77.90;;;;;;5488363;26;19998;-44
2024/04/10 12:44:18;;;;;;;5.15;1.40;;;19.30;78.20;;;;;;5488634;26;19994;-44
2024/04/10 12:46:53;;;;;;;6.70;0.88;;;19.30;78.50;;;;;;5488551;26;20034;-43
2024/04/10 12:49:19;;;;;;;3.83;1.10;;;19.30;78.90;;;;;;5488338;26;19998;-43
2024/04/10 12:51:45;;;;;;;3.53;1.08;;;19.20;79.20;;;;;;5488567;26;19994;-43